Time;durP1;ratioP1;P1;durP2;ratioP2;P2;SDS_P1;SDS_P2;PMS_P1;PMS_P2;Temp;Humidity;BMP_temperature;BMP_pressure;BME280_temperature;BME280_humidity;BME280_pressure;Samples;Min_cycle;Max_cycle;Signal;HPM_P1;HPM_P2
2023/08/14 00:00:55;;;;;;;10.60;5.03;;;;;;;;;;5058605;28;20413;-60
2023/08/14 00:03:22;;;;;;;9.80;4.57;;;;;;;;;;5058984;28;20417;-61
2023/08/14 00:05:49;;;;;;;11.00;4.70;;;;;;;;;;5060973;28;20469;-61
2023/08/14 00:08:15;;;;;;;10.88;4.20;;;;;;;;;;5054437;28;20463;-61
2023/08/14 00:10:43;;;;;;;9.20;4.30;;;;;;;;;;5056284;28;20889;-60
2023/08/14 00:13:10;;;;;;;11.88;4.38;;;;;;;;;;5057595;28;20411;-61
2023/08/14 00:15:37;;;;;;;9.63;4.47;;;;;;;;;;5063184;28;20419;-60
2023/08/14 00:18:05;;;;;;;12.45;4.20;;;;;;;;;;5054098;28;20946;-60
2023/08/14 00:20:33;;;;;;;11.73;4.50;;;;;;;;;;5060051;28;20478;-60
2023/08/14 00:23:00;;;;;;;13.70;4.82;;;;;;;;;;5061667;28;20495;-61
2023/08/14 00:25:27;;;;;;;12.00;4.60;;;;;;;;;;5058463;28;20482;-61
2023/08/14 00:27:54;;;;;;;10.30;4.60;;;;;;;;;;5050278;28;20407;-61
2023/08/14 00:30:21;;;;;;;10.90;4.70;;;;;;;;;;5059162;28;20520;-60
2023/08/14 00:32:48;;;;;;;9.55;4.38;;;;;;;;;;5062556;28;20420;-61
2023/08/14 00:35:17;;;;;;;12.35;4.60;;;;;;;;;;5061997;28;20417;-61
2023/08/14 00:37:44;;;;;;;8.85;4.05;;;;;;;;;;5062503;28;20417;-62
2023/08/14 00:40:12;;;;;;;9.60;4.32;;;;;;;;;;5061179;28;20409;-61
2023/08/14 00:42:39;;;;;;;6.93;3.70;;;;;;;;;;5062746;28;20413;-61
2023/08/14 00:45:07;;;;;;;10.95;3.92;;;;;;;;;;5062635;28;20491;-62
2023/08/14 00:47:34;;;;;;;10.00;4.00;;;;;;;;;;5062687;28;21137;-60
2023/08/14 00:50:01;;;;;;;9.32;4.10;;;;;;;;;;5062978;28;20409;-60
2023/08/14 00:52:32;;;;;;;7.93;3.47;;;;;;;;;;5061496;28;20524;-61
2023/08/14 00:55:00;;;;;;;11.05;3.92;;;;;;;;;;5063016;28;20955;-59
2023/08/14 00:57:27;;;;;;;8.15;4.10;;;;;;;;;;5041314;28;20407;-61
2023/08/14 00:59:54;;;;;;;8.85;4.00;;;;;;;;;;5062701;28;21055;-60
2023/08/14 01:02:22;;;;;;;11.77;4.13;;;;;;;;;;5060919;28;20409;-61
2023/08/14 01:04:49;;;;;;;13.27;4.65;;;;;;;;;;5060407;28;20893;-61
2023/08/14 01:07:16;;;;;;;9.87;4.17;;;;;;;;;;5063668;28;20486;-60
2023/08/14 01:09:45;;;;;;;9.70;4.18;;;;;;;;;;5059970;28;20563;-59
2023/08/14 01:12:18;;;;;;;8.63;4.07;;;;;;;;;;5055869;28;20427;-61
2023/08/14 01:14:46;;;;;;;11.73;4.05;;;;;;;;;;5060740;28;20405;-61
2023/08/14 01:17:15;;;;;;;9.77;3.78;;;;;;;;;;5054838;28;20492;-61
2023/08/14 01:19:43;;;;;;;9.50;4.13;;;;;;;;;;5060605;28;20425;-61
2023/08/14 01:22:12;;;;;;;9.85;4.25;;;;;;;;;;5056333;28;20415;-62
2023/08/14 01:24:46;;;;;;;9.25;4.10;;;;;;;;;;5058124;28;20851;-61
2023/08/14 01:27:15;;;;;;;8.10;3.70;;;;;;;;;;5054537;28;20413;-59
2023/08/14 01:29:45;;;;;;;7.50;4.00;;;;;;;;;;5061212;28;20812;-61
2023/08/14 01:32:12;;;;;;;8.65;4.18;;;;;;;;;;5061658;28;20417;-61
2023/08/14 01:34:39;;;;;;;11.23;4.30;;;;;;;;;;5061366;28;20542;-59
2023/08/14 01:37:11;;;;;;;10.98;4.03;;;;;;;;;;5062439;28;20408;-60
2023/08/14 01:39:42;;;;;;;10.95;4.05;;;;;;;;;;5061265;28;20425;-60
2023/08/14 01:42:12;;;;;;;12.43;4.57;;;;;;;;;;5059898;28;20433;-58
2023/08/14 01:44:41;;;;;;;12.00;4.30;;;;;;;;;;5061369;28;20409;-60
2023/08/14 01:47:10;;;;;;;11.57;4.53;;;;;;;;;;5061753;28;20405;-61
2023/08/14 01:49:38;;;;;;;9.90;4.13;;;;;;;;;;5060899;28;20402;-61
2023/08/14 01:52:05;;;;;;;9.43;4.50;;;;;;;;;;5060888;28;20430;-61
2023/08/14 01:54:32;;;;;;;10.40;4.53;;;;;;;;;;5060722;28;20487;-61
2023/08/14 01:57:01;;;;;;;11.02;4.57;;;;;;;;;;5060553;28;20419;-60
2023/08/14 01:59:32;;;;;;;9.70;4.63;;;;;;;;;;5056280;28;20433;-60
2023/08/14 02:02:00;;;;;;;10.80;4.50;;;;;;;;;;5058592;28;20415;-59
2023/08/14 02:04:27;;;;;;;8.85;4.25;;;;;;;;;;5060030;28;20964;-60
2023/08/14 02:06:54;;;;;;;10.82;4.45;;;;;;;;;;5061460;28;20487;-61
2023/08/14 02:09:21;;;;;;;10.55;4.65;;;;;;;;;;5059504;28;20405;-62
2023/08/14 02:11:48;;;;;;;9.30;4.22;;;;;;;;;;5062593;28;20449;-61
2023/08/14 02:14:15;;;;;;;9.87;4.20;;;;;;;;;;5059358;28;20415;-59
2023/08/14 02:16:42;;;;;;;10.80;4.50;;;;;;;;;;5062488;28;20464;-61
2023/08/14 02:19:10;;;;;;;11.50;4.40;;;;;;;;;;5058019;28;20935;-61
2023/08/14 02:21:37;;;;;;;10.60;4.20;;;;;;;;;;5061145;28;20407;-60
2023/08/14 02:24:04;;;;;;;9.33;4.50;;;;;;;;;;5058774;28;20476;-61
2023/08/14 02:26:31;;;;;;;10.20;4.20;;;;;;;;;;5057126;28;20472;-61
2023/08/14 02:28:58;;;;;;;10.30;4.27;;;;;;;;;;5053942;28;20411;-58
2023/08/14 02:31:25;;;;;;;10.80;4.18;;;;;;;;;;5057771;28;20802;-60
2023/08/14 02:33:58;;;;;;;9.52;4.32;;;;;;;;;;5061317;28;20476;-60
2023/08/14 02:36:27;;;;;;;12.68;4.95;;;;;;;;;;5056481;28;20783;-61
2023/08/14 02:38:54;;;;;;;12.07;4.53;;;;;;;;;;5062104;28;20424;-61
2023/08/14 02:41:21;;;;;;;11.05;4.50;;;;;;;;;;5057653;28;20960;-61
2023/08/14 02:43:48;;;;;;;9.43;4.70;;;;;;;;;;5060761;28;20801;-61
2023/08/14 02:46:15;;;;;;;13.25;4.57;;;;;;;;;;5058147;28;20444;-60
2023/08/14 02:48:45;;;;;;;13.00;4.68;;;;;;;;;;5060022;28;20475;-61
2023/08/14 02:51:12;;;;;;;10.77;4.57;;;;;;;;;;5058619;28;20818;-61
2023/08/14 02:53:40;;;;;;;10.52;4.80;;;;;;;;;;5056624;28;20413;-60
2023/08/14 02:56:07;;;;;;;9.52;4.40;;;;;;;;;;5056185;28;20459;-61
2023/08/14 02:58:35;;;;;;;11.27;4.50;;;;;;;;;;5052676;28;20411;-59
2023/08/14 03:01:04;;;;;;;13.35;4.60;;;;;;;;;;5054876;28;20520;-60
2023/08/14 03:03:31;;;;;;;11.07;4.38;;;;;;;;;;5058887;28;20413;-60
2023/08/14 03:05:59;;;;;;;15.30;4.70;;;;;;;;;;5059046;28;20426;-61
2023/08/14 03:08:26;;;;;;;11.10;4.72;;;;;;;;;;5054630;28;20498;-61
2023/08/14 03:10:54;;;;;;;10.88;4.80;;;;;;;;;;5058960;28;20440;-61
2023/08/14 03:13:21;;;;;;;11.80;4.63;;;;;;;;;;5058345;28;20409;-60
2023/08/14 03:15:48;;;;;;;9.38;4.40;;;;;;;;;;5058978;28;20405;-60
2023/08/14 03:18:15;;;;;;;10.88;4.57;;;;;;;;;;4996608;28;1716851;-60
2023/08/14 03:20:42;;;;;;;14.60;5.32;;;;;;;;;;5059459;28;20433;-60
2023/08/14 03:23:09;;;;;;;11.53;4.73;;;;;;;;;;5060662;28;20526;-60
2023/08/14 03:25:36;;;;;;;12.18;4.95;;;;;;;;;;5056129;28;20409;-60
2023/08/14 03:28:05;;;;;;;12.60;4.78;;;;;;;;;;5055511;28;20411;-60
2023/08/14 03:30:32;;;;;;;10.87;5.23;;;;;;;;;;5057331;28;20504;-61
2023/08/14 03:32:59;;;;;;;12.18;4.60;;;;;;;;;;5059749;28;20449;-61
2023/08/14 03:35:26;;;;;;;14.18;5.13;;;;;;;;;;5058136;28;20413;-61
2023/08/14 03:37:53;;;;;;;11.93;4.50;;;;;;;;;;5059807;28;20419;-60
2023/08/14 03:40:19;;;;;;;12.75;4.72;;;;;;;;;;5058323;28;20431;-60
2023/08/14 03:42:46;;;;;;;12.37;4.77;;;;;;;;;;5061791;28;20564;-59
2023/08/14 03:45:15;;;;;;;11.63;4.82;;;;;;;;;;5054796;28;20460;-58
2023/08/14 03:47:42;;;;;;;10.80;4.55;;;;;;;;;;5058745;28;20754;-59
2023/08/14 03:50:09;;;;;;;10.43;4.50;;;;;;;;;;5057827;28;20424;-59
2023/08/14 03:52:36;;;;;;;12.65;4.93;;;;;;;;;;5057386;28;20500;-61
2023/08/14 03:55:03;;;;;;;11.50;4.63;;;;;;;;;;5061092;28;20485;-61
2023/08/14 03:57:30;;;;;;;10.43;4.50;;;;;;;;;;5044391;28;20926;-59
2023/08/14 03:59:57;;;;;;;12.40;4.78;;;;;;;;;;5054801;28;20484;-60
2023/08/14 04:02:25;;;;;;;14.50;5.17;;;;;;;;;;5058688;28;20949;-59
2023/08/14 04:04:52;;;;;;;10.98;5.03;;;;;;;;;;5056886;28;20501;-59
2023/08/14 04:07:19;;;;;;;11.38;4.97;;;;;;;;;;5058334;28;20466;-59
2023/08/14 04:09:46;;;;;;;14.40;5.60;;;;;;;;;;5059025;28;20814;-58
2023/08/14 04:12:13;;;;;;;12.48;4.82;;;;;;;;;;5058969;28;20421;-59
2023/08/14 04:14:40;;;;;;;14.82;6.18;;;;;;;;;;5052884;28;20475;-59
2023/08/14 04:17:07;;;;;;;17.17;9.73;;;;;;;;;;5059081;28;20425;-59
2023/08/14 04:19:36;;;;;;;12.20;7.00;;;;;;;;;;5056679;28;20433;-59
2023/08/14 04:22:03;;;;;;;13.30;5.57;;;;;;;;;;5060760;28;20421;-60
2023/08/14 04:24:30;;;;;;;11.35;5.40;;;;;;;;;;5055871;28;20857;-60
2023/08/14 04:26:56;;;;;;;12.55;5.22;;;;;;;;;;5059440;28;20408;-58
2023/08/14 04:29:24;;;;;;;14.18;5.25;;;;;;;;;;5048733;28;20523;-59
2023/08/14 04:31:51;;;;;;;13.23;4.95;;;;;;;;;;5059711;28;20919;-59
2023/08/14 04:34:18;;;;;;;12.77;4.80;;;;;;;;;;5057712;28;20411;-56
2023/08/14 04:36:46;;;;;;;13.02;4.78;;;;;;;;;;5060688;28;20827;-60
2023/08/14 04:39:13;;;;;;;12.45;4.88;;;;;;;;;;5053753;28;20862;-60
2023/08/14 04:41:40;;;;;;;13.73;5.25;;;;;;;;;;5056993;28;20470;-60
2023/08/14 04:44:07;;;;;;;11.48;5.25;;;;;;;;;;5053057;28;20419;-60
2023/08/14 04:46:35;;;;;;;11.33;5.17;;;;;;;;;;5056896;28;20449;-62
2023/08/14 04:49:02;;;;;;;14.70;5.07;;;;;;;;;;5056460;28;20507;-61
2023/08/14 04:51:30;;;;;;;10.07;4.70;;;;;;;;;;5057188;28;20409;-61
2023/08/14 04:53:59;;;;;;;10.93;4.50;;;;;;;;;;5051796;28;20411;-61
2023/08/14 04:56:26;;;;;;;12.43;4.72;;;;;;;;;;5054696;28;20431;-61
2023/08/14 04:58:54;;;;;;;10.83;4.53;;;;;;;;;;5052521;28;20419;-61
2023/08/14 05:01:20;;;;;;;11.57;4.40;;;;;;;;;;5057515;28;20541;-61
2023/08/14 05:03:47;;;;;;;11.98;4.65;;;;;;;;;;5056145;28;20407;-61
2023/08/14 05:06:15;;;;;;;9.65;4.35;;;;;;;;;;5056724;28;20878;-61
2023/08/14 05:08:42;;;;;;;11.40;4.22;;;;;;;;;;5052715;28;20471;-63
2023/08/14 05:11:10;;;;;;;9.32;4.18;;;;;;;;;;5059338;28;20469;-62
2023/08/14 05:13:37;;;;;;;11.90;4.88;;;;;;;;;;5053754;28;20473;-63
2023/08/14 05:16:04;;;;;;;12.77;4.47;;;;;;;;;;5058832;28;20420;-62
2023/08/14 05:18:31;;;;;;;11.43;4.40;;;;;;;;;;5059682;28;20423;-61
2023/08/14 05:20:58;;;;;;;9.48;4.00;;;;;;;;;;5061541;28;20433;-61
2023/08/14 05:23:25;;;;;;;9.30;4.35;;;;;;;;;;5061310;28;20487;-61
2023/08/14 05:25:52;;;;;;;6.88;3.63;;;;;;;;;;5057690;28;20469;-62
2023/08/14 05:28:20;;;;;;;9.23;4.00;;;;;;;;;;5057211;28;20413;-61
2023/08/14 05:30:47;;;;;;;9.40;4.10;;;;;;;;;;5060998;28;20455;-62
2023/08/14 05:33:14;;;;;;;9.80;4.20;;;;;;;;;;5062058;28;20417;-62
2023/08/14 05:35:41;;;;;;;9.03;3.83;;;;;;;;;;5060570;28;20405;-62
2023/08/14 05:38:08;;;;;;;9.68;3.80;;;;;;;;;;5062526;28;20437;-62
2023/08/14 05:40:35;;;;;;;9.85;3.83;;;;;;;;;;5060023;28;20776;-63
2023/08/14 05:43:03;;;;;;;10.85;3.88;;;;;;;;;;5058160;28;20419;-62
2023/08/14 05:45:32;;;;;;;10.63;3.67;;;;;;;;;;5059740;28;20801;-62
2023/08/14 05:47:59;;;;;;;8.95;3.58;;;;;;;;;;5063189;28;20450;-62
2023/08/14 05:50:27;;;;;;;8.98;3.35;;;;;;;;;;5060381;28;20404;-62
2023/08/14 05:52:54;;;;;;;9.50;3.63;;;;;;;;;;5063402;28;20416;-62
2023/08/14 05:55:21;;;;;;;10.93;3.30;;;;;;;;;;5060207;28;20416;-63
2023/08/14 05:57:48;;;;;;;8.48;3.33;;;;;;;;;;5060595;28;20407;-62
2023/08/14 06:00:15;;;;;;;9.15;3.20;;;;;;;;;;5051885;28;20423;-62
2023/08/14 06:02:44;;;;;;;10.18;3.70;;;;;;;;;;5062436;28;20490;-62
2023/08/14 06:05:11;;;;;;;9.13;3.90;;;;;;;;;;5059891;28;20434;-63
2023/08/14 06:07:38;;;;;;;10.57;4.05;;;;;;;;;;5061348;28;20918;-62
2023/08/14 06:10:06;;;;;;;7.18;3.53;;;;;;;;;;5060652;28;20457;-62
2023/08/14 06:12:33;;;;;;;9.32;3.42;;;;;;;;;;5061016;28;20890;-62
2023/08/14 06:15:00;;;;;;;12.87;4.97;;;;;;;;;;5060761;28;20436;-62
2023/08/14 06:17:27;;;;;;;10.52;3.70;;;;;;;;;;5059671;28;20409;-62
2023/08/14 06:19:56;;;;;;;7.65;3.67;;;;;;;;;;5061058;28;20425;-62
2023/08/14 06:22:23;;;;;;;9.75;3.47;;;;;;;;;;5059652;28;20463;-62
2023/08/14 06:24:50;;;;;;;10.18;3.60;;;;;;;;;;5061154;28;20413;-62
2023/08/14 06:27:17;;;;;;;8.50;3.30;;;;;;;;;;5057183;28;20475;-60
2023/08/14 06:29:44;;;;;;;12.32;4.10;;;;;;;;;;5053698;28;20419;-63
2023/08/14 06:32:11;;;;;;;8.70;3.38;;;;;;;;;;5060880;28;20414;-61
2023/08/14 06:34:38;;;;;;;8.85;3.70;;;;;;;;;;5063381;28;20418;-61
2023/08/14 06:37:06;;;;;;;9.68;3.67;;;;;;;;;;5061056;28;20435;-61
2023/08/14 06:39:33;;;;;;;7.13;3.05;;;;;;;;;;5059304;28;20439;-61
2023/08/14 06:42:00;;;;;;;6.65;3.17;;;;;;;;;;5062137;28;20423;-61
2023/08/14 06:44:27;;;;;;;10.57;3.45;;;;;;;;;;5059259;28;20787;-62
2023/08/14 06:46:54;;;;;;;26.47;6.43;;;;;;;;;;5059536;28;20414;-62
2023/08/14 06:49:21;;;;;;;81.28;22.58;;;;;;;;;;5060740;28;20407;-61
2023/08/14 06:51:48;;;;;;;21.52;6.95;;;;;;;;;;5059012;28;20435;-61
2023/08/14 06:54:17;;;;;;;192.25;39.78;;;;;;;;;;5061189;28;20488;-61
2023/08/14 06:56:44;;;;;;;35.60;9.85;;;;;;;;;;5054439;28;20411;-61
2023/08/14 06:59:11;;;;;;;10.95;3.92;;;;;;;;;;5051478;28;20477;-60
2023/08/14 07:01:38;;;;;;;10.80;4.30;;;;;;;;;;5058405;28;20485;-61
2023/08/14 07:04:05;;;;;;;10.40;3.33;;;;;;;;;;5061980;28;20457;-61
2023/08/14 07:06:32;;;;;;;9.80;3.83;;;;;;;;;;5058496;28;20414;-62
2023/08/14 07:08:59;;;;;;;11.48;3.65;;;;;;;;;;5061674;28;20419;-60
2023/08/14 07:11:28;;;;;;;6.77;3.23;;;;;;;;;;5059068;28;20451;-61
2023/08/14 07:13:55;;;;;;;6.15;3.10;;;;;;;;;;5061696;28;20462;-63
2023/08/14 07:16:22;;;;;;;7.77;3.03;;;;;;;;;;5057697;28;20408;-61
2023/08/14 07:18:49;;;;;;;8.60;2.95;;;;;;;;;;5060674;28;20919;-61
2023/08/14 07:21:16;;;;;;;6.75;3.00;;;;;;;;;;5058885;28;20428;-60
2023/08/14 07:23:43;;;;;;;8.25;3.15;;;;;;;;;;5059908;28;20417;-60
2023/08/14 07:26:12;;;;;;;7.43;2.90;;;;;;;;;;5052794;28;20960;-62
2023/08/14 07:28:41;;;;;;;6.15;2.70;;;;;;;;;;5053163;28;20459;-62
2023/08/14 07:31:08;;;;;;;6.70;2.85;;;;;;;;;;5059611;28;20404;-61
2023/08/14 07:33:35;;;;;;;7.83;2.70;;;;;;;;;;5058959;28;20409;-61
2023/08/14 07:36:02;;;;;;;8.07;3.00;;;;;;;;;;5063145;28;20511;-61
2023/08/14 07:38:29;;;;;;;7.18;2.72;;;;;;;;;;5058774;28;20421;-62
2023/08/14 07:40:57;;;;;;;7.03;2.90;;;;;;;;;;5059028;28;20425;-63
2023/08/14 07:43:24;;;;;;;9.15;3.00;;;;;;;;;;5059123;28;20418;-62
2023/08/14 07:45:52;;;;;;;8.38;2.80;;;;;;;;;;5058846;28;20913;-62
2023/08/14 07:48:19;;;;;;;7.65;2.78;;;;;;;;;;5059343;28;20419;-63
2023/08/14 07:50:51;;;;;;;7.18;2.63;;;;;;;;;;5062321;28;20436;-62
2023/08/14 07:53:18;;;;;;;8.05;2.78;;;;;;;;;;5059424;28;20410;-62
2023/08/14 07:55:47;;;;;;;6.47;2.70;;;;;;;;;;5058261;28;20463;-61
2023/08/14 07:58:15;;;;;;;9.73;2.90;;;;;;;;;;5056974;28;20411;-61
2023/08/14 08:00:42;;;;;;;7.13;2.38;;;;;;;;;;5058200;28;20433;-63
2023/08/14 08:03:10;;;;;;;8.93;3.10;;;;;;;;;;5060079;28;20416;-62
2023/08/14 08:05:37;;;;;;;6.10;2.70;;;;;;;;;;5057573;28;20413;-62
2023/08/14 08:08:05;;;;;;;8.82;3.00;;;;;;;;;;5060546;28;20506;-63
2023/08/14 08:10:32;;;;;;;8.02;2.80;;;;;;;;;;5060443;28;20463;-62
2023/08/14 08:12:59;;;;;;;7.67;2.70;;;;;;;;;;5061174;28;20420;-62
2023/08/14 08:15:26;;;;;;;11.23;3.10;;;;;;;;;;5057291;28;20885;-62
2023/08/14 08:17:53;;;;;;;8.10;2.85;;;;;;;;;;5060495;28;20416;-62
2023/08/14 08:20:21;;;;;;;7.53;2.85;;;;;;;;;;5057820;28;20407;-63
2023/08/14 08:22:48;;;;;;;5.70;2.60;;;;;;;;;;5060612;28;20414;-62
2023/08/14 08:25:17;;;;;;;8.82;3.25;;;;;;;;;;5060886;28;20411;-62
2023/08/14 08:27:44;;;;;;;6.00;2.72;;;;;;;;;;5055135;28;20921;-62
2023/08/14 08:30:11;;;;;;;10.07;2.85;;;;;;;;;;5057593;28;20422;-67
2023/08/14 08:32:39;;;;;;;6.70;3.20;;;;;;;;;;5057600;28;20414;-62
2023/08/14 08:35:06;;;;;;;9.40;3.22;;;;;;;;;;5061069;28;20411;-63
2023/08/14 08:37:35;;;;;;;26.73;14.20;;;;;;;;;;5057297;28;20771;-63
2023/08/14 08:40:03;;;;;;;57.50;23.20;;;;;;;;;;5060662;28;20836;-62
2023/08/14 08:42:30;;;;;;;6.75;3.08;;;;;;;;;;5055112;28;20429;-62
2023/08/14 08:45:01;;;;;;;7.38;3.03;;;;;;;;;;5060039;28;21138;-62
2023/08/14 08:47:30;;;;;;;8.07;3.10;;;;;;;;;;5054858;28;20507;-62
2023/08/14 08:49:58;;;;;;;10.23;3.55;;;;;;;;;;5060361;28;20431;-63
2023/08/14 08:52:26;;;;;;;7.68;3.40;;;;;;;;;;5060999;28;20405;-63
2023/08/14 08:54:56;;;;;;;7.57;2.83;;;;;;;;;;5063695;28;20417;-63
2023/08/14 08:57:24;;;;;;;7.18;3.20;;;;;;;;;;5052631;28;20420;-63
2023/08/14 08:59:51;;;;;;;7.40;2.92;;;;;;;;;;5060885;28;20863;-63
2023/08/14 09:02:18;;;;;;;6.78;2.75;;;;;;;;;;5062209;28;20427;-62
2023/08/14 09:04:45;;;;;;;7.75;2.50;;;;;;;;;;5062744;28;20879;-62
2023/08/14 09:07:12;;;;;;;6.85;2.70;;;;;;;;;;5061760;28;20407;-61
2023/08/14 09:09:39;;;;;;;7.22;2.35;;;;;;;;;;5061473;28;20964;-61
2023/08/14 09:12:08;;;;;;;6.05;2.53;;;;;;;;;;5062105;28;20417;-62
2023/08/14 09:14:34;;;;;;;8.02;2.17;;;;;;;;;;5061500;28;20421;-62
2023/08/14 09:17:02;;;;;;;5.43;2.25;;;;;;;;;;5061838;28;20487;-62
2023/08/14 09:19:29;;;;;;;7.03;2.30;;;;;;;;;;5061566;28;20413;-62
2023/08/14 09:21:57;;;;;;;5.37;2.10;;;;;;;;;;5061445;28;20476;-62
2023/08/14 09:24:24;;;;;;;6.80;2.45;;;;;;;;;;5061862;28;20417;-62
2023/08/14 09:26:51;;;;;;;6.43;2.80;;;;;;;;;;5054636;28;20416;-62
2023/08/14 09:29:19;;;;;;;3.97;2.20;;;;;;;;;;5060979;28;20407;-61
2023/08/14 09:31:47;;;;;;;6.85;2.60;;;;;;;;;;5060816;28;20416;-63
2023/08/14 09:34:17;;;;;;;6.55;2.60;;;;;;;;;;5062886;28;20473;-63
2023/08/14 09:36:44;;;;;;;7.23;2.53;;;;;;;;;;5060364;28;20570;-63
2023/08/14 09:39:12;;;;;;;8.05;2.30;;;;;;;;;;5063175;28;20412;-63
2023/08/14 09:41:39;;;;;;;6.33;2.30;;;;;;;;;;5060688;28;20436;-62
2023/08/14 09:44:06;;;;;;;5.47;2.10;;;;;;;;;;5059490;28;20446;-61
2023/08/14 09:46:34;;;;;;;7.32;2.33;;;;;;;;;;5061227;28;20479;-62
2023/08/14 09:49:01;;;;;;;6.00;2.37;;;;;;;;;;5063710;28;20409;-63
2023/08/14 09:51:28;;;;;;;6.97;2.58;;;;;;;;;;5062342;28;20882;-62
2023/08/14 09:53:57;;;;;;;6.20;2.38;;;;;;;;;;5063253;28;20419;-62
2023/08/14 09:56:24;;;;;;;6.25;2.30;;;;;;;;;;5057105;28;20472;-62
2023/08/14 09:58:52;;;;;;;7.55;2.58;;;;;;;;;;5061965;28;20465;-62
2023/08/14 10:01:20;;;;;;;7.22;2.58;;;;;;;;;;5059839;28;20844;-62
2023/08/14 10:03:51;;;;;;;6.75;2.53;;;;;;;;;;5062255;28;20408;-63
2023/08/14 10:06:19;;;;;;;8.15;2.50;;;;;;;;;;5059890;28;20872;-62
2023/08/14 10:08:46;;;;;;;6.72;2.45;;;;;;;;;;5062108;28;20939;-61
2023/08/14 10:11:15;;;;;;;5.45;2.00;;;;;;;;;;5060741;28;20403;-63
2023/08/14 10:13:44;;;;;;;6.43;2.05;;;;;;;;;;5059401;28;20420;-63
2023/08/14 10:16:14;;;;;;;4.40;1.92;;;;;;;;;;5062813;28;20495;-63
2023/08/14 10:18:42;;;;;;;6.45;2.30;;;;;;;;;;5059644;28;20410;-63
2023/08/14 10:21:12;;;;;;;7.63;2.53;;;;;;;;;;5063058;28;20474;-63
2023/08/14 10:23:40;;;;;;;6.63;2.40;;;;;;;;;;5059411;28;20413;-63
2023/08/14 10:26:08;;;;;;;4.72;2.17;;;;;;;;;;5060680;28;20774;-64
2023/08/14 10:28:35;;;;;;;3.70;2.15;;;;;;;;;;5057939;28;20417;-64
2023/08/14 10:31:03;;;;;;;7.10;2.30;;;;;;;;;;5062043;28;20442;-62
2023/08/14 10:33:31;;;;;;;6.97;2.33;;;;;;;;;;5056899;28;20417;-64
2023/08/14 10:35:58;;;;;;;5.95;2.25;;;;;;;;;;5061871;28;20420;-62
2023/08/14 10:38:40;;;;;;;5.05;2.45;;;;;;;;;;5059155;28;20458;-63
2023/08/14 10:41:08;;;;;;;5.45;2.20;;;;;;;;;;5062481;28;20461;-63
2023/08/14 10:43:35;;;;;;;4.97;2.10;;;;;;;;;;5058704;28;20407;-63
2023/08/14 10:46:08;;;;;;;7.90;2.30;;;;;;;;;;5062116;28;20477;-64
2023/08/14 10:48:36;;;;;;;5.00;2.15;;;;;;;;;;5040184;28;20850;-62
2023/08/14 10:51:03;;;;;;;6.13;2.22;;;;;;;;;;5058059;28;20412;-64
2023/08/14 10:53:32;;;;;;;5.90;2.17;;;;;;;;;;5053671;28;20416;-65
2023/08/14 10:55:59;;;;;;;4.68;2.00;;;;;;;;;;5057472;28;20415;-64
2023/08/14 10:58:40;;;;;;;6.20;2.17;;;;;;;;;;5045455;28;20451;-63
2023/08/14 11:01:08;;;;;;;6.40;2.15;;;;;;;;;;5048796;28;20425;-65
2023/08/14 11:03:35;;;;;;;5.78;2.00;;;;;;;;;;5050928;28;20419;-65
2023/08/14 11:06:02;;;;;;;3.95;1.98;;;;;;;;;;5058565;28;20411;-67
2023/08/14 11:08:30;;;;;;;4.97;1.73;;;;;;;;;;5050578;28;20478;-65
2023/08/14 11:10:59;;;;;;;8.05;2.22;;;;;;;;;;5056967;28;20506;-67
2023/08/14 11:13:29;;;;;;;4.32;2.00;;;;;;;;;;5049116;28;20412;-64
2023/08/14 11:15:56;;;;;;;6.87;2.30;;;;;;;;;;5060744;28;20434;-65
2023/08/14 11:18:23;;;;;;;4.88;2.10;;;;;;;;;;5047697;28;20409;-64
2023/08/14 11:20:51;;;;;;;5.85;2.10;;;;;;;;;;5059933;28;20419;-64
2023/08/14 11:23:18;;;;;;;5.35;2.20;;;;;;;;;;5050208;28;20425;-65
2023/08/14 11:25:45;;;;;;;7.03;2.35;;;;;;;;;;5055898;28;20467;-63
2023/08/14 11:28:14;;;;;;;5.43;2.10;;;;;;;;;;5055316;28;20495;-62
2023/08/14 11:30:41;;;;;;;9.38;2.10;;;;;;;;;;5054495;28;20783;-65
2023/08/14 11:33:08;;;;;;;5.40;1.98;;;;;;;;;;5062583;28;20959;-62
2023/08/14 11:35:35;;;;;;;5.13;2.00;;;;;;;;;;5053341;28;20423;-63
2023/08/14 11:38:02;;;;;;;8.18;2.65;;;;;;;;;;5058641;28;20417;-66
2023/08/14 11:40:29;;;;;;;5.90;2.20;;;;;;;;;;5062631;28;20430;-63
2023/08/14 11:42:56;;;;;;;6.05;2.33;;;;;;;;;;5065697;28;20436;-63
2023/08/14 11:45:25;;;;;;;5.82;2.33;;;;;;;;;;5061070;28;20414;-63
2023/08/14 11:47:52;;;;;;;6.25;2.17;;;;;;;;;;5058413;28;20484;-63
2023/08/14 11:50:19;;;;;;;5.10;2.10;;;;;;;;;;5058270;28;20416;-62
2023/08/14 11:52:47;;;;;;;5.77;2.30;;;;;;;;;;5058272;28;20412;-62
2023/08/14 11:55:14;;;;;;;7.88;2.55;;;;;;;;;;5058322;28;20512;-62
2023/08/14 11:57:41;;;;;;;5.20;2.13;;;;;;;;;;5051327;28;20433;-62
2023/08/14 12:00:10;;;;;;;5.80;2.25;;;;;;;;;;5065787;28;20468;-63
2023/08/14 12:02:39;;;;;;;6.28;2.17;;;;;;;;;;5061756;28;20437;-64
2023/08/14 12:05:06;;;;;;;5.93;2.20;;;;;;;;;;5062054;28;20495;-65
2023/08/14 12:07:34;;;;;;;6.03;2.10;;;;;;;;;;5051612;28;20916;-62
2023/08/14 12:10:04;;;;;;;7.43;2.33;;;;;;;;;;5051890;28;20415;-62
2023/08/14 12:12:31;;;;;;;6.10;2.40;;;;;;;;;;5053964;28;20466;-61
2023/08/14 12:15:00;;;;;;;6.90;2.03;;;;;;;;;;5055140;28;20418;-62
2023/08/14 12:17:27;;;;;;;7.88;2.40;;;;;;;;;;5054564;28;20448;-62
2023/08/14 12:19:57;;;;;;;5.38;2.22;;;;;;;;;;5049880;28;20747;-63
2023/08/14 12:22:25;;;;;;;5.40;2.50;;;;;;;;;;5055268;28;21079;-61
2023/08/14 12:24:53;;;;;;;4.88;2.40;;;;;;;;;;5052559;28;20423;-61
2023/08/14 12:27:21;;;;;;;4.60;2.50;;;;;;;;;;5059146;28;20443;-61
2023/08/14 12:29:48;;;;;;;4.28;2.30;;;;;;;;;;5058606;28;20428;-61
2023/08/14 12:32:15;;;;;;;5.00;2.20;;;;;;;;;;5059112;28;20877;-63
2023/08/14 12:34:42;;;;;;;6.30;2.30;;;;;;;;;;5059181;28;20413;-63
2023/08/14 12:37:12;;;;;;;6.67;2.40;;;;;;;;;;5047601;28;20413;-63
2023/08/14 12:39:39;;;;;;;6.15;2.50;;;;;;;;;;5054040;28;20415;-63
2023/08/14 12:42:07;;;;;;;5.50;2.53;;;;;;;;;;5059448;28;20486;-62
2023/08/14 12:44:34;;;;;;;5.95;2.38;;;;;;;;;;5052842;28;20411;-63
2023/08/14 12:47:01;;;;;;;7.97;2.40;;;;;;;;;;5063414;28;20893;-63
2023/08/14 12:49:28;;;;;;;5.85;2.30;;;;;;;;;;5053923;28;21142;-63
2023/08/14 12:51:59;;;;;;;5.22;2.35;;;;;;;;;;5064743;28;20414;-65
2023/08/14 12:54:27;;;;;;;5.72;2.33;;;;;;;;;;5055996;28;20886;-62
2023/08/14 12:56:55;;;;;;;6.80;2.50;;;;;;;;;;5059834;28;20412;-64
2023/08/14 12:59:22;;;;;;;8.70;2.80;;;;;;;;;;5060408;28;20407;-64
2023/08/14 13:01:49;;;;;;;7.60;2.45;;;;;;;;;;5059209;28;20463;-64
2023/08/14 13:04:16;;;;;;;6.63;2.50;;;;;;;;;;5055840;28;20412;-62
2023/08/14 13:06:44;;;;;;;7.20;2.80;;;;;;;;;;5060775;28;20416;-62
2023/08/14 13:09:12;;;;;;;6.55;2.30;;;;;;;;;;5061998;28;20412;-63
2023/08/14 13:11:41;;;;;;;5.47;2.65;;;;;;;;;;5057768;28;20407;-63
2023/08/14 13:14:08;;;;;;;5.53;2.67;;;;;;;;;;5063494;28;20494;-63
2023/08/14 13:16:35;;;;;;;5.70;2.45;;;;;;;;;;5060190;28;20421;-63
2023/08/14 13:19:02;;;;;;;6.90;2.53;;;;;;;;;;5062570;28;20479;-62
2023/08/14 13:21:29;;;;;;;4.60;2.45;;;;;;;;;;5061300;28;20410;-62
2023/08/14 13:23:55;;;;;;;6.15;2.75;;;;;;;;;;5061108;28;20429;-62
2023/08/14 13:26:23;;;;;;;5.85;2.97;;;;;;;;;;5061135;28;20476;-62
2023/08/14 13:28:51;;;;;;;6.67;2.50;;;;;;;;;;5055666;28;20420;-62
2023/08/14 13:31:18;;;;;;;8.15;2.67;;;;;;;;;;5062249;28;20407;-62
2023/08/14 13:33:45;;;;;;;8.07;3.28;;;;;;;;;;5060522;28;20492;-63
2023/08/14 13:36:13;;;;;;;6.40;2.63;;;;;;;;;;5060764;28;20429;-62
2023/08/14 13:38:40;;;;;;;5.70;2.78;;;;;;;;;;5060143;28;20409;-62
2023/08/14 13:41:10;;;;;;;6.40;2.63;;;;;;;;;;5060635;28;20405;-62
2023/08/14 13:43:37;;;;;;;5.82;2.50;;;;;;;;;;5060726;28;20889;-62
2023/08/14 13:46:05;;;;;;;5.93;2.40;;;;;;;;;;5060529;28;20401;-62
2023/08/14 13:48:32;;;;;;;7.85;2.60;;;;;;;;;;5061258;28;20535;-62
2023/08/14 13:50:59;;;;;;;4.13;2.40;;;;;;;;;;5060360;28;20756;-62
2023/08/14 13:53:26;;;;;;;5.05;2.50;;;;;;;;;;5062156;28;20420;-62
2023/08/14 13:55:53;;;;;;;6.68;2.83;;;;;;;;;;5056537;28;20476;-62
2023/08/14 13:58:20;;;;;;;5.15;3.03;;;;;;;;;;5053054;28;20820;-62
2023/08/14 14:00:47;;;;;;;6.35;2.72;;;;;;;;;;5058957;28;20420;-62
2023/08/14 14:03:15;;;;;;;6.78;3.10;;;;;;;;;;5062499;28;21249;-62
2023/08/14 14:05:42;;;;;;;6.90;3.08;;;;;;;;;;5056133;28;20413;-62
2023/08/14 14:08:09;;;;;;;4.88;2.60;;;;;;;;;;5062819;28;20411;-62
2023/08/14 14:10:36;;;;;;;5.20;2.55;;;;;;;;;;5059332;28;20415;-62
2023/08/14 14:13:04;;;;;;;7.10;2.95;;;;;;;;;;5062236;28;20404;-62
2023/08/14 14:15:31;;;;;;;6.23;3.00;;;;;;;;;;5059338;28;20581;-62
2023/08/14 14:17:58;;;;;;;8.50;3.15;;;;;;;;;;5058775;28;20409;-62
2023/08/14 14:20:27;;;;;;;6.63;2.80;;;;;;;;;;5060257;28;20473;-62
2023/08/14 14:22:54;;;;;;;4.57;2.72;;;;;;;;;;5060868;28;20434;-62
2023/08/14 14:25:21;;;;;;;6.30;2.63;;;;;;;;;;5060665;28;20442;-62
2023/08/14 14:27:48;;;;;;;5.10;2.90;;;;;;;;;;5052255;28;20432;-62
2023/08/14 14:30:15;;;;;;;5.30;2.78;;;;;;;;;;5057226;28;20412;-62
2023/08/14 14:32:42;;;;;;;6.10;3.05;;;;;;;;;;5062109;28;20767;-62
2023/08/14 14:35:09;;;;;;;5.60;2.80;;;;;;;;;;5062201;28;20420;-62
2023/08/14 14:37:37;;;;;;;5.28;2.80;;;;;;;;;;5060510;28;20425;-62
2023/08/14 14:40:05;;;;;;;8.30;3.20;;;;;;;;;;5063747;28;20414;-62